sensor_id;sensor_type;location;lat;lon;timestamp;P1;durP1;ratioP1;P2;durP2;ratioP2
19919;SDS011;10122;50.074;19.920;2023-04-24T00:01:43;17.40;;;11.95;;
19919;SDS011;10122;50.074;19.920;2023-04-24T00:04:08;16.33;;;11.18;;
19919;SDS011;10122;50.074;19.920;2023-04-24T00:06:36;20.25;;;12.18;;
19919;SDS011;10122;50.074;19.920;2023-04-24T00:09:05;18.25;;;11.68;;
19919;SDS011;10122;50.074;19.920;2023-04-24T00:11:31;16.70;;;11.32;;
19919;SDS011;10122;50.074;19.920;2023-04-24T00:13:56;17.85;;;12.00;;
19919;SDS011;10122;50.074;19.920;2023-04-24T00:16:23;18.67;;;11.85;;
19919;SDS011;10122;50.074;19.920;2023-04-24T00:18:49;18.23;;;11.57;;
19919;SDS011;10122;50.074;19.920;2023-04-24T00:21:15;18.60;;;12.00;;
19919;SDS011;10122;50.074;19.920;2023-04-24T00:23:43;18.70;;;11.68;;
19919;SDS011;10122;50.074;19.920;2023-04-24T00:26:09;16.88;;;11.57;;
19919;SDS011;10122;50.074;19.920;2023-04-24T00:28:35;17.42;;;11.32;;
19919;SDS011;10122;50.074;19.920;2023-04-24T00:31:01;18.00;;;12.00;;
19919;SDS011;10122;50.074;19.920;2023-04-24T00:33:27;16.25;;;11.68;;
19919;SDS011;10122;50.074;19.920;2023-04-24T00:35:52;17.60;;;11.18;;
19919;SDS011;10122;50.074;19.920;2023-04-24T00:38:18;16.38;;;10.88;;
19919;SDS011;10122;50.074;19.920;2023-04-24T00:40:44;15.13;;;11.30;;
19919;SDS011;10122;50.074;19.920;2023-04-24T00:43:10;16.83;;;11.70;;
19919;SDS011;10122;50.074;19.920;2023-04-24T00:45:36;19.30;;;11.13;;
19919;SDS011;10122;50.074;19.920;2023-04-24T00:48:02;17.77;;;11.40;;
19919;SDS011;10122;50.074;19.920;2023-04-24T00:50:29;19.55;;;10.95;;
19919;SDS011;10122;50.074;19.920;2023-04-24T00:52:55;15.77;;;10.50;;
19919;SDS011;10122;50.074;19.920;2023-04-24T00:55:21;16.65;;;10.70;;
19919;SDS011;10122;50.074;19.920;2023-04-24T00:57:47;15.02;;;11.23;;
19919;SDS011;10122;50.074;19.920;2023-04-24T01:00:14;17.60;;;10.65;;
19919;SDS011;10122;50.074;19.920;2023-04-24T01:02:41;17.50;;;11.32;;
19919;SDS011;10122;50.074;19.920;2023-04-24T01:05:10;17.52;;;11.82;;
19919;SDS011;10122;50.074;19.920;2023-04-24T01:07:37;15.43;;;10.48;;
19919;SDS011;10122;50.074;19.920;2023-04-24T01:10:06;18.60;;;10.93;;
19919;SDS011;10122;50.074;19.920;2023-04-24T01:12:33;15.98;;;11.35;;
19919;SDS011;10122;50.074;19.920;2023-04-24T01:14:59;17.08;;;11.52;;
19919;SDS011;10122;50.074;19.920;2023-04-24T01:17:25;16.33;;;10.60;;
19919;SDS011;10122;50.074;19.920;2023-04-24T01:19:51;16.80;;;10.80;;
19919;SDS011;10122;50.074;19.920;2023-04-24T01:22:21;17.35;;;10.93;;
19919;SDS011;10122;50.074;19.920;2023-04-24T01:24:47;16.88;;;10.30;;
19919;SDS011;10122;50.074;19.920;2023-04-24T01:27:13;15.05;;;10.68;;
19919;SDS011;10122;50.074;19.920;2023-04-24T01:29:39;15.82;;;10.77;;
19919;SDS011;10122;50.074;19.920;2023-04-24T01:32:05;14.80;;;10.18;;
19919;SDS011;10122;50.074;19.920;2023-04-24T01:34:32;15.43;;;10.77;;
19919;SDS011;10122;50.074;19.920;2023-04-24T01:36:59;15.95;;;10.30;;
19919;SDS011;10122;50.074;19.920;2023-04-24T01:39:25;17.38;;;10.20;;
19919;SDS011;10122;50.074;19.920;2023-04-24T01:41:53;14.10;;;10.02;;
19919;SDS011;10122;50.074;19.920;2023-04-24T01:44:19;17.95;;;10.60;;
19919;SDS011;10122;50.074;19.920;2023-04-24T01:46:46;17.08;;;10.38;;
19919;SDS011;10122;50.074;19.920;2023-04-24T01:49:12;16.85;;;10.85;;
19919;SDS011;10122;50.074;19.920;2023-04-24T01:51:38;17.95;;;10.25;;
19919;SDS011;10122;50.074;19.920;2023-04-24T01:54:04;13.75;;;9.98;;
19919;SDS011;10122;50.074;19.920;2023-04-24T01:56:30;13.77;;;10.18;;
19919;SDS011;10122;50.074;19.920;2023-04-24T01:59:00;14.27;;;10.25;;
19919;SDS011;10122;50.074;19.920;2023-04-24T02:01:31;17.00;;;10.70;;
19919;SDS011;10122;50.074;19.920;2023-04-24T02:04:02;16.02;;;10.23;;
19919;SDS011;10122;50.074;19.920;2023-04-24T02:06:28;14.82;;;10.57;;
19919;SDS011;10122;50.074;19.920;2023-04-24T02:08:54;17.02;;;10.55;;
19919;SDS011;10122;50.074;19.920;2023-04-24T02:11:19;15.07;;;11.10;;
19919;SDS011;10122;50.074;19.920;2023-04-24T02:13:45;15.50;;;10.43;;
19919;SDS011;10122;50.074;19.920;2023-04-24T02:16:11;16.02;;;10.90;;
19919;SDS011;10122;50.074;19.920;2023-04-24T02:18:36;14.55;;;10.75;;
19919;SDS011;10122;50.074;19.920;2023-04-24T02:21:02;15.95;;;9.85;;
19919;SDS011;10122;50.074;19.920;2023-04-24T02:23:28;16.10;;;10.77;;
19919;SDS011;10122;50.074;19.920;2023-04-24T02:25:54;15.77;;;10.43;;
19919;SDS011;10122;50.074;19.920;2023-04-24T02:28:20;13.93;;;8.90;;
19919;SDS011;10122;50.074;19.920;2023-04-24T02:30:46;14.93;;;10.10;;
19919;SDS011;10122;50.074;19.920;2023-04-24T02:33:12;15.50;;;10.20;;
19919;SDS011;10122;50.074;19.920;2023-04-24T02:35:37;15.57;;;10.85;;
19919;SDS011;10122;50.074;19.920;2023-04-24T02:38:03;16.75;;;10.05;;
19919;SDS011;10122;50.074;19.920;2023-04-24T02:40:29;14.30;;;10.10;;
19919;SDS011;10122;50.074;19.920;2023-04-24T02:42:55;14.20;;;10.18;;
19919;SDS011;10122;50.074;19.920;2023-04-24T02:45:21;14.88;;;10.38;;
19919;SDS011;10122;50.074;19.920;2023-04-24T02:47:46;17.40;;;10.07;;
19919;SDS011;10122;50.074;19.920;2023-04-24T02:50:12;14.65;;;10.23;;
19919;SDS011;10122;50.074;19.920;2023-04-24T02:52:38;18.08;;;10.52;;
19919;SDS011;10122;50.074;19.920;2023-04-24T02:55:04;16.60;;;10.90;;
19919;SDS011;10122;50.074;19.920;2023-04-24T02:57:30;18.50;;;11.05;;
19919;SDS011;10122;50.074;19.920;2023-04-24T02:59:56;18.10;;;11.27;;
19919;SDS011;10122;50.074;19.920;2023-04-24T03:02:22;15.07;;;10.45;;
19919;SDS011;10122;50.074;19.920;2023-04-24T03:04:47;16.90;;;10.50;;
19919;SDS011;10122;50.074;19.920;2023-04-24T03:07:13;15.40;;;9.88;;
19919;SDS011;10122;50.074;19.920;2023-04-24T03:09:39;15.35;;;10.00;;
19919;SDS011;10122;50.074;19.920;2023-04-24T03:12:05;13.93;;;9.93;;
19919;SDS011;10122;50.074;19.920;2023-04-24T03:14:31;17.45;;;10.07;;
19919;SDS011;10122;50.074;19.920;2023-04-24T03:16:57;16.95;;;10.02;;
19919;SDS011;10122;50.074;19.920;2023-04-24T03:19:23;18.40;;;10.35;;
19919;SDS011;10122;50.074;19.920;2023-04-24T03:21:49;14.43;;;10.60;;
19919;SDS011;10122;50.074;19.920;2023-04-24T03:24:15;17.50;;;10.18;;
19919;SDS011;10122;50.074;19.920;2023-04-24T03:26:41;15.27;;;10.07;;
19919;SDS011;10122;50.074;19.920;2023-04-24T03:29:06;17.17;;;9.70;;
19919;SDS011;10122;50.074;19.920;2023-04-24T03:31:32;14.80;;;9.82;;
19919;SDS011;10122;50.074;19.920;2023-04-24T03:33:58;13.38;;;9.50;;
19919;SDS011;10122;50.074;19.920;2023-04-24T03:36:24;16.23;;;9.98;;
19919;SDS011;10122;50.074;19.920;2023-04-24T03:38:51;16.40;;;9.65;;
19919;SDS011;10122;50.074;19.920;2023-04-24T03:41:16;17.85;;;9.45;;
19919;SDS011;10122;50.074;19.920;2023-04-24T03:43:42;15.80;;;9.88;;
19919;SDS011;10122;50.074;19.920;2023-04-24T03:46:08;15.85;;;9.82;;
19919;SDS011;10122;50.074;19.920;2023-04-24T03:48:34;15.23;;;9.65;;
19919;SDS011;10122;50.074;19.920;2023-04-24T03:51:00;14.90;;;9.75;;
19919;SDS011;10122;50.074;19.920;2023-04-24T03:53:26;14.52;;;9.68;;
19919;SDS011;10122;50.074;19.920;2023-04-24T03:55:52;15.13;;;9.70;;
19919;SDS011;10122;50.074;19.920;2023-04-24T03:58:18;13.65;;;8.85;;
19919;SDS011;10122;50.074;19.920;2023-04-24T04:00:44;17.95;;;9.50;;
19919;SDS011;10122;50.074;19.920;2023-04-24T04:03:12;15.68;;;10.27;;
19919;SDS011;10122;50.074;19.920;2023-04-24T04:05:39;15.48;;;9.38;;
19919;SDS011;10122;50.074;19.920;2023-04-24T04:08:05;15.82;;;9.40;;
19919;SDS011;10122;50.074;19.920;2023-04-24T04:10:31;14.32;;;9.07;;
19919;SDS011;10122;50.074;19.920;2023-04-24T04:12:56;18.45;;;9.63;;
19919;SDS011;10122;50.074;19.920;2023-04-24T04:15:22;14.02;;;9.07;;
19919;SDS011;10122;50.074;19.920;2023-04-24T04:17:48;15.25;;;8.88;;
19919;SDS011;10122;50.074;19.920;2023-04-24T04:20:13;13.10;;;9.23;;
19919;SDS011;10122;50.074;19.920;2023-04-24T04:22:39;16.90;;;9.25;;
19919;SDS011;10122;50.074;19.920;2023-04-24T04:25:05;16.90;;;9.63;;
19919;SDS011;10122;50.074;19.920;2023-04-24T04:27:31;16.90;;;9.35;;
19919;SDS011;10122;50.074;19.920;2023-04-24T04:30:00;18.13;;;9.43;;
19919;SDS011;10122;50.074;19.920;2023-04-24T04:32:29;14.30;;;9.32;;
19919;SDS011;10122;50.074;19.920;2023-04-24T04:34:58;16.02;;;9.75;;
19919;SDS011;10122;50.074;19.920;2023-04-24T04:37:28;18.30;;;10.10;;
19919;SDS011;10122;50.074;19.920;2023-04-24T04:39:58;15.15;;;9.20;;
19919;SDS011;10122;50.074;19.920;2023-04-24T04:42:24;15.07;;;9.13;;
19919;SDS011;10122;50.074;19.920;2023-04-24T04:44:52;18.50;;;10.13;;
19919;SDS011;10122;50.074;19.920;2023-04-24T04:47:18;19.42;;;9.30;;
19919;SDS011;10122;50.074;19.920;2023-04-24T04:49:49;13.93;;;9.20;;
19919;SDS011;10122;50.074;19.920;2023-04-24T04:52:17;18.88;;;9.38;;
19919;SDS011;10122;50.074;19.920;2023-04-24T04:54:43;18.13;;;8.45;;
19919;SDS011;10122;50.074;19.920;2023-04-24T04:57:09;15.93;;;8.88;;
19919;SDS011;10122;50.074;19.920;2023-04-24T04:59:35;15.38;;;9.43;;
19919;SDS011;10122;50.074;19.920;2023-04-24T05:02:02;16.95;;;9.25;;
19919;SDS011;10122;50.074;19.920;2023-04-24T05:04:28;19.17;;;9.52;;
19919;SDS011;10122;50.074;19.920;2023-04-24T05:06:53;16.42;;;9.82;;
19919;SDS011;10122;50.074;19.920;2023-04-24T05:09:19;16.98;;;9.15;;
19919;SDS011;10122;50.074;19.920;2023-04-24T05:11:45;17.35;;;9.50;;
19919;SDS011;10122;50.074;19.920;2023-04-24T05:14:10;19.63;;;9.90;;
19919;SDS011;10122;50.074;19.920;2023-04-24T05:16:37;15.50;;;9.23;;
19919;SDS011;10122;50.074;19.920;2023-04-24T05:19:03;15.73;;;9.18;;
19919;SDS011;10122;50.074;19.920;2023-04-24T05:21:30;19.75;;;9.25;;
19919;SDS011;10122;50.074;19.920;2023-04-24T05:23:56;14.40;;;9.43;;
19919;SDS011;10122;50.074;19.920;2023-04-24T05:26:22;22.63;;;9.20;;
19919;SDS011;10122;50.074;19.920;2023-04-24T05:28:48;14.73;;;8.98;;
19919;SDS011;10122;50.074;19.920;2023-04-24T05:31:13;16.00;;;8.80;;
19919;SDS011;10122;50.074;19.920;2023-04-24T05:33:39;17.00;;;8.68;;
19919;SDS011;10122;50.074;19.920;2023-04-24T05:36:05;18.33;;;8.55;;
19919;SDS011;10122;50.074;19.920;2023-04-24T05:38:31;16.60;;;8.48;;
19919;SDS011;10122;50.074;19.920;2023-04-24T05:40:57;15.55;;;8.50;;
19919;SDS011;10122;50.074;19.920;2023-04-24T05:43:23;13.75;;;8.43;;
19919;SDS011;10122;50.074;19.920;2023-04-24T05:45:49;20.30;;;8.75;;
19919;SDS011;10122;50.074;19.920;2023-04-24T05:48:14;16.48;;;8.88;;
19919;SDS011;10122;50.074;19.920;2023-04-24T05:50:40;19.73;;;8.95;;
19919;SDS011;10122;50.074;19.920;2023-04-24T05:53:06;17.77;;;8.73;;
19919;SDS011;10122;50.074;19.920;2023-04-24T05:55:32;12.68;;;7.72;;
19919;SDS011;10122;50.074;19.920;2023-04-24T05:57:58;14.40;;;7.72;;
19919;SDS011;10122;50.074;19.920;2023-04-24T06:00:25;15.80;;;7.82;;
19919;SDS011;10122;50.074;19.920;2023-04-24T06:02:51;17.77;;;8.05;;
19919;SDS011;10122;50.074;19.920;2023-04-24T06:05:20;16.52;;;7.88;;
19919;SDS011;10122;50.074;19.920;2023-04-24T06:07:46;16.33;;;7.82;;
19919;SDS011;10122;50.074;19.920;2023-04-24T06:10:13;15.60;;;7.00;;
19919;SDS011;10122;50.074;19.920;2023-04-24T06:12:39;17.38;;;7.70;;
19919;SDS011;10122;50.074;19.920;2023-04-24T06:15:05;16.80;;;7.40;;
19919;SDS011;10122;50.074;19.920;2023-04-24T06:17:31;14.63;;;7.82;;
19919;SDS011;10122;50.074;19.920;2023-04-24T06:19:57;15.57;;;7.18;;
19919;SDS011;10122;50.074;19.920;2023-04-24T06:22:23;11.88;;;7.32;;
19919;SDS011;10122;50.074;19.920;2023-04-24T06:24:48;18.88;;;7.82;;
19919;SDS011;10122;50.074;19.920;2023-04-24T06:27:14;13.95;;;7.05;;
19919;SDS011;10122;50.074;19.920;2023-04-24T06:29:40;12.35;;;6.97;;
19919;SDS011;10122;50.074;19.920;2023-04-24T06:32:05;10.88;;;6.50;;
19919;SDS011;10122;50.074;19.920;2023-04-24T06:34:31;13.57;;;6.50;;
19919;SDS011;10122;50.074;19.920;2023-04-24T06:36:58;10.48;;;5.80;;
19919;SDS011;10122;50.074;19.920;2023-04-24T06:39:25;11.55;;;5.88;;
19919;SDS011;10122;50.074;19.920;2023-04-24T06:41:50;8.98;;;5.68;;
19919;SDS011;10122;50.074;19.920;2023-04-24T06:44:16;10.32;;;5.55;;
19919;SDS011;10122;50.074;19.920;2023-04-24T06:46:42;11.05;;;5.97;;
19919;SDS011;10122;50.074;19.920;2023-04-24T06:49:07;10.40;;;6.10;;
19919;SDS011;10122;50.074;19.920;2023-04-24T06:51:33;12.57;;;5.93;;
19919;SDS011;10122;50.074;19.920;2023-04-24T06:53:59;10.82;;;6.20;;
19919;SDS011;10122;50.074;19.920;2023-04-24T06:56:25;9.75;;;5.55;;
19919;SDS011;10122;50.074;19.920;2023-04-24T06:58:51;8.50;;;5.80;;
19919;SDS011;10122;50.074;19.920;2023-04-24T07:01:17;11.30;;;5.80;;
19919;SDS011;10122;50.074;19.920;2023-04-24T07:03:42;8.98;;;5.40;;
19919;SDS011;10122;50.074;19.920;2023-04-24T07:06:09;10.55;;;5.50;;
19919;SDS011;10122;50.074;19.920;2023-04-24T07:08:36;10.18;;;5.50;;
19919;SDS011;10122;50.074;19.920;2023-04-24T07:11:02;10.27;;;5.45;;
19919;SDS011;10122;50.074;19.920;2023-04-24T07:13:28;8.57;;;5.00;;
19919;SDS011;10122;50.074;19.920;2023-04-24T07:15:54;11.70;;;6.03;;
19919;SDS011;10122;50.074;19.920;2023-04-24T07:18:21;12.30;;;5.65;;
19919;SDS011;10122;50.074;19.920;2023-04-24T07:20:47;8.98;;;5.85;;
19919;SDS011;10122;50.074;19.920;2023-04-24T07:23:15;9.02;;;5.60;;
19919;SDS011;10122;50.074;19.920;2023-04-24T07:25:41;12.38;;;5.50;;
19919;SDS011;10122;50.074;19.920;2023-04-24T07:28:06;9.77;;;5.90;;
19919;SDS011;10122;50.074;19.920;2023-04-24T07:30:32;11.18;;;5.72;;
19919;SDS011;10122;50.074;19.920;2023-04-24T07:32:58;8.40;;;5.75;;
19919;SDS011;10122;50.074;19.920;2023-04-24T07:35:25;10.07;;;5.93;;
19919;SDS011;10122;50.074;19.920;2023-04-24T07:37:52;8.88;;;5.70;;
19919;SDS011;10122;50.074;19.920;2023-04-24T07:40:18;9.25;;;5.57;;
19919;SDS011;10122;50.074;19.920;2023-04-24T07:42:44;11.38;;;5.43;;
19919;SDS011;10122;50.074;19.920;2023-04-24T07:45:10;12.70;;;5.65;;
19919;SDS011;10122;50.074;19.920;2023-04-24T07:47:36;10.15;;;5.60;;
19919;SDS011;10122;50.074;19.920;2023-04-24T07:50:03;9.27;;;5.55;;
19919;SDS011;10122;50.074;19.920;2023-04-24T07:52:29;9.07;;;4.90;;
19919;SDS011;10122;50.074;19.920;2023-04-24T07:54:55;6.35;;;4.80;;
19919;SDS011;10122;50.074;19.920;2023-04-24T07:57:25;7.60;;;4.90;;
19919;SDS011;10122;50.074;19.920;2023-04-24T07:59:51;10.80;;;5.78;;
19919;SDS011;10122;50.074;19.920;2023-04-24T08:02:16;10.10;;;4.95;;
19919;SDS011;10122;50.074;19.920;2023-04-24T08:04:42;9.60;;;5.30;;
19919;SDS011;10122;50.074;19.920;2023-04-24T08:07:08;9.43;;;5.28;;
19919;SDS011;10122;50.074;19.920;2023-04-24T08:09:34;10.68;;;5.20;;
19919;SDS011;10122;50.074;19.920;2023-04-24T08:12:00;8.25;;;5.10;;
19919;SDS011;10122;50.074;19.920;2023-04-24T08:14:26;9.68;;;5.57;;
19919;SDS011;10122;50.074;19.920;2023-04-24T08:16:53;9.35;;;5.28;;
19919;SDS011;10122;50.074;19.920;2023-04-24T08:19:25;7.88;;;5.35;;
19919;SDS011;10122;50.074;19.920;2023-04-24T08:21:50;11.02;;;5.38;;
19919;SDS011;10122;50.074;19.920;2023-04-24T08:24:16;10.10;;;5.07;;
19919;SDS011;10122;50.074;19.920;2023-04-24T08:26:42;7.93;;;4.75;;
19919;SDS011;10122;50.074;19.920;2023-04-24T08:29:08;6.72;;;4.60;;
19919;SDS011;10122;50.074;19.920;2023-04-24T08:31:34;7.03;;;4.30;;
19919;SDS011;10122;50.074;19.920;2023-04-24T08:34:00;7.93;;;4.57;;
19919;SDS011;10122;50.074;19.920;2023-04-24T08:36:26;6.63;;;4.15;;
19919;SDS011;10122;50.074;19.920;2023-04-24T08:38:52;6.88;;;4.60;;
19919;SDS011;10122;50.074;19.920;2023-04-24T08:41:18;8.55;;;4.60;;
19919;SDS011;10122;50.074;19.920;2023-04-24T08:43:47;6.40;;;4.43;;
19919;SDS011;10122;50.074;19.920;2023-04-24T08:46:13;8.15;;;4.68;;
19919;SDS011;10122;50.074;19.920;2023-04-24T08:48:41;11.15;;;4.85;;
19919;SDS011;10122;50.074;19.920;2023-04-24T08:51:08;6.00;;;4.70;;
19919;SDS011;10122;50.074;19.920;2023-04-24T08:53:34;8.25;;;4.45;;
19919;SDS011;10122;50.074;19.920;2023-04-24T08:56:01;5.90;;;4.28;;
19919;SDS011;10122;50.074;19.920;2023-04-24T08:58:27;7.20;;;4.30;;
19919;SDS011;10122;50.074;19.920;2023-04-24T09:00:57;6.15;;;3.80;;
19919;SDS011;10122;50.074;19.920;2023-04-24T09:03:24;7.53;;;3.80;;
19919;SDS011;10122;50.074;19.920;2023-04-24T09:05:53;4.18;;;3.78;;
19919;SDS011;10122;50.074;19.920;2023-04-24T09:08:20;5.07;;;3.88;;
19919;SDS011;10122;50.074;19.920;2023-04-24T09:10:50;5.20;;;4.18;;
19919;SDS011;10122;50.074;19.920;2023-04-24T09:13:16;5.05;;;4.00;;
19919;SDS011;10122;50.074;19.920;2023-04-24T09:15:43;5.32;;;3.85;;
19919;SDS011;10122;50.074;19.920;2023-04-24T09:18:09;5.40;;;3.97;;
19919;SDS011;10122;50.074;19.920;2023-04-24T09:20:35;5.10;;;3.95;;
19919;SDS011;10122;50.074;19.920;2023-04-24T09:23:27;6.07;;;4.07;;
19919;SDS011;10122;50.074;19.920;2023-04-24T09:25:55;4.93;;;3.90;;
19919;SDS011;10122;50.074;19.920;2023-04-24T09:28:38;7.72;;;4.53;;
19919;SDS011;10122;50.074;19.920;2023-04-24T09:31:07;4.95;;;3.90;;
19919;SDS011;10122;50.074;19.920;2023-04-24T09:34:04;5.30;;;4.00;;
19919;SDS011;10122;50.074;19.920;2023-04-24T09:36:36;4.95;;;4.00;;
19919;SDS011;10122;50.074;19.920;2023-04-24T09:39:10;5.70;;;4.05;;
19919;SDS011;10122;50.074;19.920;2023-04-24T09:46:44;5.55;;;4.18;;
19919;SDS011;10122;50.074;19.920;2023-04-24T09:49:15;5.30;;;4.20;;
19919;SDS011;10122;50.074;19.920;2023-04-24T09:51:42;4.32;;;3.90;;
19919;SDS011;10122;50.074;19.920;2023-04-24T09:54:15;5.22;;;4.05;;
19919;SDS011;10122;50.074;19.920;2023-04-24T09:56:48;5.15;;;3.83;;
19919;SDS011;10122;50.074;19.920;2023-04-24T09:59:16;4.53;;;3.95;;
19919;SDS011;10122;50.074;19.920;2023-04-24T10:01:53;4.70;;;4.22;;
19919;SDS011;10122;50.074;19.920;2023-04-24T10:04:22;4.18;;;3.78;;
19919;SDS011;10122;50.074;19.920;2023-04-24T10:06:53;4.88;;;3.83;;
19919;SDS011;10122;50.074;19.920;2023-04-24T10:09:21;4.68;;;3.85;;
19919;SDS011;10122;50.074;19.920;2023-04-24T10:11:49;5.72;;;3.70;;
19919;SDS011;10122;50.074;19.920;2023-04-24T10:14:20;6.53;;;3.58;;
19919;SDS011;10122;50.074;19.920;2023-04-24T10:16:47;3.78;;;3.13;;
19919;SDS011;10122;50.074;19.920;2023-04-24T10:19:14;3.65;;;3.20;;
19919;SDS011;10122;50.074;19.920;2023-04-24T10:21:41;4.32;;;3.30;;
19919;SDS011;10122;50.074;19.920;2023-04-24T10:24:11;4.65;;;3.35;;
19919;SDS011;10122;50.074;19.920;2023-04-24T10:26:41;4.60;;;3.80;;
19919;SDS011;10122;50.074;19.920;2023-04-24T10:29:07;4.75;;;3.50;;
19919;SDS011;10122;50.074;19.920;2023-04-24T10:31:37;4.93;;;3.40;;
19919;SDS011;10122;50.074;19.920;2023-04-24T10:34:04;3.90;;;3.50;;
19919;SDS011;10122;50.074;19.920;2023-04-24T10:36:31;4.32;;;3.92;;
19919;SDS011;10122;50.074;19.920;2023-04-24T10:38:59;5.88;;;4.03;;
19919;SDS011;10122;50.074;19.920;2023-04-24T10:41:27;6.28;;;3.72;;
19919;SDS011;10122;50.074;19.920;2023-04-24T10:46:31;6.22;;;4.00;;
19919;SDS011;10122;50.074;19.920;2023-04-24T10:48:56;5.45;;;3.60;;
19919;SDS011;10122;50.074;19.920;2023-04-24T10:51:23;5.18;;;3.70;;
19919;SDS011;10122;50.074;19.920;2023-04-24T10:53:51;4.95;;;4.07;;
19919;SDS011;10122;50.074;19.920;2023-04-24T10:56:16;7.60;;;4.13;;
19919;SDS011;10122;50.074;19.920;2023-04-24T10:58:43;4.45;;;3.65;;
19919;SDS011;10122;50.074;19.920;2023-04-24T11:01:24;5.95;;;3.80;;
19919;SDS011;10122;50.074;19.920;2023-04-24T11:03:58;6.13;;;3.60;;
19919;SDS011;10122;50.074;19.920;2023-04-24T11:06:31;5.15;;;3.80;;
19919;SDS011;10122;50.074;19.920;2023-04-24T11:09:03;4.35;;;3.80;;
19919;SDS011;10122;50.074;19.920;2023-04-24T11:11:34;4.72;;;3.45;;
19919;SDS011;10122;50.074;19.920;2023-04-24T11:14:02;6.07;;;3.97;;
19919;SDS011;10122;50.074;19.920;2023-04-24T11:19:20;4.97;;;4.00;;
19919;SDS011;10122;50.074;19.920;2023-04-24T11:21:54;5.57;;;4.00;;
19919;SDS011;10122;50.074;19.920;2023-04-24T11:29:45;4.82;;;3.95;;
19919;SDS011;10122;50.074;19.920;2023-04-24T11:32:18;5.93;;;4.00;;
19919;SDS011;10122;50.074;19.920;2023-04-24T11:37:33;4.80;;;3.92;;
19919;SDS011;10122;50.074;19.920;2023-04-24T11:40:02;6.88;;;4.15;;
19919;SDS011;10122;50.074;19.920;2023-04-24T11:42:33;5.45;;;4.20;;
19919;SDS011;10122;50.074;19.920;2023-04-24T11:45:07;5.35;;;4.05;;
19919;SDS011;10122;50.074;19.920;2023-04-24T11:47:33;4.32;;;3.10;;
19919;SDS011;10122;50.074;19.920;2023-04-24T11:49:59;5.85;;;4.40;;
19919;SDS011;10122;50.074;19.920;2023-04-24T11:52:26;4.05;;;3.22;;
19919;SDS011;10122;50.074;19.920;2023-04-24T11:54:52;5.50;;;3.85;;
19919;SDS011;10122;50.074;19.920;2023-04-24T11:57:22;6.28;;;4.10;;
19919;SDS011;10122;50.074;19.920;2023-04-24T11:59:51;4.90;;;4.00;;
19919;SDS011;10122;50.074;19.920;2023-04-24T12:02:23;4.68;;;3.83;;
19919;SDS011;10122;50.074;19.920;2023-04-24T12:04:50;5.43;;;4.00;;
19919;SDS011;10122;50.074;19.920;2023-04-24T12:07:20;5.97;;;3.90;;
19919;SDS011;10122;50.074;19.920;2023-04-24T12:09:47;5.35;;;4.25;;
19919;SDS011;10122;50.074;19.920;2023-04-24T12:12:25;6.53;;;4.20;;
19919;SDS011;10122;50.074;19.920;2023-04-24T12:14:53;5.38;;;4.00;;
19919;SDS011;10122;50.074;19.920;2023-04-24T12:17:29;5.53;;;4.18;;
19919;SDS011;10122;50.074;19.920;2023-04-24T12:20:01;4.65;;;3.60;;
19919;SDS011;10122;50.074;19.920;2023-04-24T12:22:50;6.85;;;4.57;;
19919;SDS011;10122;50.074;19.920;2023-04-24T12:25:21;5.88;;;3.70;;
19919;SDS011;10122;50.074;19.920;2023-04-24T12:28:10;5.60;;;4.20;;
19919;SDS011;10122;50.074;19.920;2023-04-24T12:30:42;4.15;;;3.47;;
19919;SDS011;10122;50.074;19.920;2023-04-24T12:33:18;4.43;;;3.72;;
19919;SDS011;10122;50.074;19.920;2023-04-24T12:35:45;4.45;;;3.60;;
19919;SDS011;10122;50.074;19.920;2023-04-24T12:38:13;6.88;;;4.05;;
19919;SDS011;10122;50.074;19.920;2023-04-24T12:40:41;4.88;;;3.60;;
19919;SDS011;10122;50.074;19.920;2023-04-24T12:43:18;6.32;;;4.00;;
19919;SDS011;10122;50.074;19.920;2023-04-24T12:45:45;6.85;;;5.32;;
19919;SDS011;10122;50.074;19.920;2023-04-24T12:48:12;7.80;;;5.47;;
19919;SDS011;10122;50.074;19.920;2023-04-24T12:50:41;6.65;;;5.40;;
19919;SDS011;10122;50.074;19.920;2023-04-24T12:53:08;7.57;;;4.97;;
19919;SDS011;10122;50.074;19.920;2023-04-24T12:55:34;12.82;;;5.68;;
19919;SDS011;10122;50.074;19.920;2023-04-24T12:58:00;9.02;;;5.45;;
19919;SDS011;10122;50.074;19.920;2023-04-24T13:00:26;10.55;;;5.38;;
19919;SDS011;10122;50.074;19.920;2023-04-24T13:02:52;6.97;;;5.45;;
19919;SDS011;10122;50.074;19.920;2023-04-24T13:05:18;7.60;;;5.70;;
19919;SDS011;10122;50.074;19.920;2023-04-24T13:07:44;7.57;;;5.45;;
19919;SDS011;10122;50.074;19.920;2023-04-24T13:10:09;9.95;;;5.90;;
19919;SDS011;10122;50.074;19.920;2023-04-24T13:12:35;7.20;;;5.53;;
19919;SDS011;10122;50.074;19.920;2023-04-24T13:15:01;7.70;;;5.18;;
19919;SDS011;10122;50.074;19.920;2023-04-24T13:17:28;6.55;;;5.30;;
19919;SDS011;10122;50.074;19.920;2023-04-24T13:19:54;8.13;;;5.57;;
19919;SDS011;10122;50.074;19.920;2023-04-24T13:22:20;8.35;;;4.97;;
19919;SDS011;10122;50.074;19.920;2023-04-24T13:24:46;8.40;;;5.28;;
19919;SDS011;10122;50.074;19.920;2023-04-24T13:27:13;9.35;;;5.38;;
19919;SDS011;10122;50.074;19.920;2023-04-24T13:29:40;6.80;;;5.10;;
19919;SDS011;10122;50.074;19.920;2023-04-24T13:32:05;8.02;;;5.22;;
19919;SDS011;10122;50.074;19.920;2023-04-24T13:34:31;8.13;;;4.97;;
19919;SDS011;10122;50.074;19.920;2023-04-24T13:36:57;5.88;;;4.70;;
19919;SDS011;10122;50.074;19.920;2023-04-24T13:39:23;8.75;;;4.72;;
19919;SDS011;10122;50.074;19.920;2023-04-24T13:41:50;6.18;;;4.43;;
19919;SDS011;10122;50.074;19.920;2023-04-24T13:44:17;8.73;;;4.65;;
19919;SDS011;10122;50.074;19.920;2023-04-24T13:46:44;4.32;;;3.60;;
19919;SDS011;10122;50.074;19.920;2023-04-24T13:49:11;5.85;;;3.78;;
19919;SDS011;10122;50.074;19.920;2023-04-24T13:51:38;6.53;;;4.03;;
19919;SDS011;10122;50.074;19.920;2023-04-24T13:54:05;6.03;;;3.97;;
19919;SDS011;10122;50.074;19.920;2023-04-24T13:56:30;4.88;;;3.97;;
19919;SDS011;10122;50.074;19.920;2023-04-24T13:58:56;5.13;;;3.67;;
19919;SDS011;10122;50.074;19.920;2023-04-24T14:01:22;4.68;;;3.58;;
19919;SDS011;10122;50.074;19.920;2023-04-24T14:03:50;4.03;;;3.30;;
19919;SDS011;10122;50.074;19.920;2023-04-24T14:06:16;7.18;;;3.50;;
19919;SDS011;10122;50.074;19.920;2023-04-24T14:08:43;6.03;;;3.67;;
19919;SDS011;10122;50.074;19.920;2023-04-24T14:11:08;5.30;;;3.53;;
19919;SDS011;10122;50.074;19.920;2023-04-24T14:13:35;5.57;;;3.90;;
19919;SDS011;10122;50.074;19.920;2023-04-24T14:16:02;5.38;;;4.07;;
19919;SDS011;10122;50.074;19.920;2023-04-24T14:18:29;4.05;;;3.40;;
19919;SDS011;10122;50.074;19.920;2023-04-24T14:20:55;5.97;;;3.70;;
19919;SDS011;10122;50.074;19.920;2023-04-24T14:23:20;4.43;;;3.33;;
19919;SDS011;10122;50.074;19.920;2023-04-24T14:25:46;4.70;;;3.50;;
19919;SDS011;10122;50.074;19.920;2023-04-24T14:28:15;4.55;;;3.78;;
19919;SDS011;10122;50.074;19.920;2023-04-24T14:30:42;4.60;;;3.80;;
19919;SDS011;10122;50.074;19.920;2023-04-24T14:33:08;5.25;;;3.45;;
19919;SDS011;10122;50.074;19.920;2023-04-24T14:35:33;5.85;;;3.67;;
19919;SDS011;10122;50.074;19.920;2023-04-24T14:38:00;6.30;;;3.67;;
19919;SDS011;10122;50.074;19.920;2023-04-24T14:40:26;4.57;;;3.60;;
19919;SDS011;10122;50.074;19.920;2023-04-24T14:42:51;6.35;;;3.78;;